createdAt,value
2022-08-03T00:00:34.801Z,45.72
2022-08-03T00:02:36.430Z,45.75
2022-08-03T00:04:38.117Z,45.98
2022-08-03T00:06:39.790Z,46.01
2022-08-03T00:08:41.335Z,46.10
2022-08-03T00:10:43.109Z,46.38
2022-08-03T00:12:44.680Z,46.21
2022-08-03T00:14:46.353Z,46.45
2022-08-03T00:16:47.894Z,46.72
2022-08-03T00:18:49.544Z,46.87
2022-08-03T00:20:51.132Z,46.81
2022-08-03T00:22:52.760Z,46.71
2022-08-03T00:24:54.343Z,47.20
2022-08-03T00:26:55.981Z,47.23
2022-08-03T00:28:57.415Z,47.24
2022-08-03T00:30:59.053Z,47.22
2022-08-03T00:33:01.707Z,47.52
2022-08-03T00:35:08.078Z,47.30
2022-08-03T00:37:10.821Z,47.58
2022-08-03T00:39:12.256Z,47.45
2022-08-03T00:41:15.700Z,47.39
2022-08-03T00:43:17.628Z,47.56
2022-08-03T00:45:21.552Z,47.72
2022-08-03T00:47:23.099Z,47.48
2022-08-03T00:49:24.790Z,47.53
2022-08-03T00:51:27.076Z,47.76
2022-08-03T00:53:28.835Z,47.81
2022-08-03T00:55:31.037Z,47.77
2022-08-03T00:57:34.599Z,47.97
2022-08-03T00:59:38.362Z,47.88
2022-08-03T01:01:40.812Z,47.95
2022-08-03T01:03:42.586Z,48.37
2022-08-03T01:05:58.177Z,48.89
2022-08-03T01:08:11.945Z,48.57
2022-08-03T01:10:20.391Z,48.56
2022-08-03T01:12:34.967Z,48.84
2022-08-03T01:14:44.316Z,48.45
2022-08-03T01:16:45.863Z,48.55
2022-08-03T01:19:16.116Z,49.34
2022-08-03T01:21:47.806Z,49.30
2022-08-03T01:24:12.879Z,49.47
2022-08-03T01:26:36.196Z,49.51
2022-08-03T01:28:56.415Z,49.76
2022-08-03T01:31:04.094Z,49.45
2022-08-03T01:33:15.112Z,49.67
2022-08-03T01:35:20.105Z,49.25
2022-08-03T01:37:32.063Z,49.88
2022-08-03T01:39:37.872Z,49.73
2022-08-03T01:41:47.956Z,49.82
2022-08-03T01:44:28.231Z,49.47
2022-08-03T01:46:15.856Z,49.75
2022-08-03T01:48:18.633Z,49.75
2022-08-03T01:50:27.646Z,49.86
2022-08-03T01:52:31.545Z,49.70
2022-08-03T01:54:43.268Z,49.92
2022-08-03T01:56:46.630Z,49.87
2022-08-03T01:58:51.209Z,50.05
2022-08-03T02:00:55.986Z,49.98
2022-08-03T02:02:58.789Z,50.05
2022-08-03T02:05:03.122Z,50.23
2022-08-03T02:07:07.971Z,50.31
2022-08-03T02:09:09.807Z,50.52
2022-08-03T02:11:13.035Z,50.27
2022-08-03T02:13:16.981Z,50.53
2022-08-03T02:15:19.322Z,50.42
2022-08-03T02:17:39.779Z,50.71
2022-08-03T02:19:43.456Z,50.47
2022-08-03T02:21:57.448Z,50.59
2022-08-03T02:24:04.529Z,50.79
2022-08-03T02:26:10.989Z,50.75
2022-08-03T02:28:18.203Z,50.86
2022-08-03T02:30:20.784Z,50.86
2022-08-03T02:32:30.764Z,51.18
2022-08-03T02:34:35.006Z,50.78
2022-08-03T02:36:39.505Z,50.89
2022-08-03T02:38:43.889Z,51.14
2022-08-03T02:40:46.565Z,50.99
2022-08-03T02:42:51.919Z,50.95
2022-08-03T02:44:57.246Z,51.33
2022-08-03T02:47:03.432Z,51.28
2022-08-03T02:49:40.478Z,51.15
2022-08-03T02:51:31.078Z,51.09
2022-08-03T02:53:33.810Z,51.07
2022-08-03T02:55:36.339Z,51.31
2022-08-03T02:57:46.642Z,51.43
2022-08-03T02:59:49.045Z,51.62
2022-08-03T03:01:51.544Z,51.66
2022-08-03T03:03:55.402Z,51.56
2022-08-03T03:05:57.953Z,51.50
2022-08-03T03:08:02.484Z,51.72
2022-08-03T03:10:05.019Z,51.61
2022-08-03T03:12:09.566Z,52.18
2022-08-03T03:14:13.432Z,51.78
2022-08-03T03:16:16.416Z,51.77
2022-08-03T03:18:22.243Z,51.73
2022-08-03T03:20:30.134Z,51.88
2022-08-03T03:22:33.967Z,52.13
2022-08-03T03:24:38.014Z,51.84
2022-08-03T03:26:42.521Z,51.69
2022-08-03T03:28:44.626Z,51.65
2022-08-03T03:30:53.150Z,51.73
2022-08-03T03:32:55.709Z,52.17
2022-08-03T03:35:00.847Z,52.12
2022-08-03T03:37:02.714Z,52.05
2022-08-03T03:39:15.419Z,52.14
2022-08-03T03:41:17.819Z,52.17
2022-08-03T03:43:19.706Z,52.32
2022-08-03T03:45:21.922Z,52.24
2022-08-03T03:47:32.265Z,52.22
2022-08-03T03:49:34.984Z,52.34
2022-08-03T03:51:36.614Z,52.41
2022-08-03T03:53:38.254Z,52.42
2022-08-03T03:55:59.588Z,52.52
2022-08-03T03:58:04.073Z,52.51
2022-08-03T04:00:06.507Z,52.86
2022-08-03T04:02:09.777Z,52.96
2022-08-03T04:04:29.820Z,52.63
2022-08-03T04:06:50.488Z,53.22
2022-08-03T04:09:10.787Z,53.25
2022-08-03T04:11:20.878Z,53.44
2022-08-03T04:13:40.047Z,53.63
2022-08-03T04:15:42.516Z,52.85
2022-08-03T04:17:45.154Z,53.34
2022-08-03T04:19:53.731Z,53.38
2022-08-03T04:22:00.040Z,53.62
2022-08-03T04:24:04.214Z,53.64
2022-08-03T04:26:09.889Z,53.14
2022-08-03T04:28:29.745Z,53.26
2022-08-03T04:30:36.365Z,53.58
2022-08-03T04:32:42.916Z,53.81
2022-08-03T04:34:47.454Z,53.76
2022-08-03T04:36:52.282Z,53.92
2022-08-03T04:39:13.774Z,53.76
2022-08-03T04:41:16.879Z,54.28
2022-08-03T04:43:21.061Z,53.97
2022-08-03T04:45:23.423Z,54.45
2022-08-03T04:47:25.276Z,54.26
2022-08-03T04:49:27.338Z,54.34
2022-08-03T04:51:29.985Z,54.21
2022-08-03T04:53:31.565Z,54.61
2022-08-03T04:55:34.660Z,54.44
2022-08-03T04:57:36.216Z,54.47
2022-08-03T04:59:39.217Z,54.62
2022-08-03T05:01:42.555Z,54.63
2022-08-03T05:03:44.128Z,54.96
2022-08-03T05:05:49.670Z,54.53
2022-08-03T05:07:52.276Z,54.83
2022-08-03T05:10:01.599Z,55.01
2022-08-03T05:12:06.166Z,54.82
2022-08-03T05:14:07.738Z,55.03
2022-08-03T05:16:09.497Z,54.91
2022-08-03T05:18:14.095Z,54.80
2022-08-03T05:20:16.568Z,54.91
2022-08-03T05:22:21.556Z,54.82
2022-08-03T05:24:23.367Z,54.87
2022-08-03T05:26:25.129Z,55.14
2022-08-03T05:28:28.323Z,55.02
2022-08-03T05:30:34.081Z,54.89
2022-08-03T05:32:36.125Z,55.30
2022-08-03T05:34:38.718Z,54.93
2022-08-03T05:36:40.490Z,55.11
2022-08-03T05:38:42.033Z,55.01
2022-08-03T05:40:56.788Z,55.03
2022-08-03T05:42:59.753Z,54.96
2022-08-03T05:45:12.936Z,55.28
2022-08-03T05:47:15.065Z,55.25
2022-08-03T05:49:17.236Z,54.88
2022-08-03T05:51:19.065Z,55.06
2022-08-03T05:53:20.728Z,55.24
2022-08-03T05:55:22.340Z,55.07
2022-08-03T05:57:25.395Z,55.33
2022-08-03T05:59:38.170Z,55.33
2022-08-03T06:01:40.694Z,54.80
2022-08-03T06:03:42.593Z,55.02
2022-08-03T06:05:58.341Z,54.93
2022-08-03T06:08:02.351Z,54.43
2022-08-03T06:10:35.942Z,54.64
2022-08-03T06:12:26.777Z,54.48
2022-08-03T06:14:28.382Z,54.40
2022-08-03T06:16:30.153Z,54.11
2022-08-03T06:18:31.715Z,53.63
2022-08-03T06:20:33.746Z,53.46
2022-08-03T06:22:36.831Z,53.64
2022-08-03T06:24:53.465Z,53.83
2022-08-03T06:26:57.894Z,53.80
2022-08-03T06:28:59.653Z,53.62
2022-08-03T06:31:06.605Z,53.55
2022-08-03T06:33:08.396Z,53.42
2022-08-03T06:35:10.497Z,53.58
2022-08-03T06:37:12.027Z,53.77
2022-08-03T06:39:13.781Z,53.22
2022-08-03T06:41:15.334Z,53.50
2022-08-03T06:43:16.998Z,53.39
2022-08-03T06:45:18.853Z,53.50
2022-08-03T06:47:20.364Z,52.75
2022-08-03T06:49:22.256Z,52.76
2022-08-03T06:52:02.685Z,52.20
2022-08-03T06:53:45.449Z,52.06
2022-08-03T06:55:51.120Z,51.89
2022-08-03T06:57:55.976Z,51.41
2022-08-03T07:00:10.469Z,51.25
2022-08-03T07:02:18.298Z,51.36
2022-08-03T07:04:21.121Z,50.69
2022-08-03T07:06:22.784Z,50.66
2022-08-03T07:08:33.191Z,50.47
2022-08-03T07:10:36.306Z,50.33
2022-08-03T07:12:38.722Z,49.97
2022-08-03T07:15:02.571Z,49.33
2022-08-03T07:17:11.487Z,49.35
2022-08-03T07:19:13.683Z,48.62
2022-08-03T07:21:16.741Z,48.54
2022-08-03T07:23:19.346Z,48.61
2022-08-03T07:25:21.220Z,48.52
2022-08-03T07:27:22.888Z,48.26
2022-08-03T07:29:24.984Z,48.24
2022-08-03T07:31:26.617Z,48.00
2022-08-03T07:33:28.275Z,48.15
2022-08-03T07:35:30.021Z,47.64
2022-08-03T07:37:31.883Z,47.76
2022-08-03T07:39:33.608Z,47.34
2022-08-03T07:41:35.334Z,47.14
2022-08-03T07:43:36.791Z,47.15
2022-08-03T07:45:38.431Z,46.97
2022-08-03T07:47:40.082Z,47.04
2022-08-03T07:49:48.937Z,46.83
2022-08-03T07:52:10.501Z,46.62
2022-08-03T07:54:12.260Z,46.28
2022-08-03T07:56:14.221Z,46.70
2022-08-03T07:58:22.022Z,46.20
2022-08-03T08:00:25.370Z,45.72
2022-08-03T08:02:27.494Z,45.27
2022-08-03T08:04:29.035Z,44.97
2022-08-03T08:06:32.730Z,45.21
2022-08-03T08:08:34.437Z,45.02
2022-08-03T08:10:36.767Z,44.87
2022-08-03T08:12:40.063Z,44.62
2022-08-03T08:14:42.444Z,44.79
2022-08-03T08:16:44.144Z,44.39
2022-08-03T08:18:45.745Z,44.66
2022-08-03T08:20:47.790Z,44.90
2022-08-03T08:22:49.819Z,44.79
2022-08-03T08:24:53.093Z,44.22
2022-08-03T08:26:56.937Z,44.02
2022-08-03T08:28:58.517Z,44.32
2022-08-03T08:31:01.140Z,44.06
2022-08-03T08:33:02.716Z,43.82
2022-08-03T08:35:06.384Z,41.40
2022-08-03T08:37:07.937Z,41.69
2022-08-03T08:39:09.587Z,41.56
2022-08-03T08:41:12.606Z,40.84
2022-08-03T08:43:15.728Z,41.16
2022-08-03T08:45:18.842Z,41.51
2022-08-03T08:47:24.732Z,41.54
2022-08-03T08:49:28.161Z,41.87
2022-08-03T08:51:52.699Z,41.05
2022-08-03T08:53:53.886Z,40.89
2022-08-03T08:56:00.913Z,41.28
2022-08-03T08:58:06.338Z,41.27
2022-08-03T09:00:14.748Z,41.12
2022-08-03T09:02:16.641Z,40.98
2022-08-03T09:04:18.898Z,40.14
2022-08-03T09:06:21.767Z,40.45
2022-08-03T09:08:23.529Z,40.27
2022-08-03T09:10:25.060Z,40.27
2022-08-03T09:12:42.718Z,40.10
2022-08-03T09:15:00.799Z,39.72
2022-08-03T09:17:06.482Z,39.93
2022-08-03T09:19:16.201Z,39.40
2022-08-03T09:21:31.795Z,39.79
2022-08-03T09:24:01.613Z,38.93
2022-08-03T09:26:04.222Z,38.96
2022-08-03T09:28:14.123Z,38.41
2022-08-03T09:30:37.533Z,38.48
2022-08-03T09:32:39.480Z,38.90
2022-08-03T09:34:41.263Z,38.20
2022-08-03T09:36:50.990Z,38.29
2022-08-03T09:39:06.501Z,37.61
2022-08-03T09:41:18.466Z,37.48
2022-08-03T09:43:21.100Z,36.99
2022-08-03T09:45:29.960Z,37.45
2022-08-03T09:47:36.252Z,37.38
2022-08-03T09:49:41.061Z,37.56
2022-08-03T09:52:32.734Z,37.40
2022-08-03T09:54:07.593Z,37.13
2022-08-03T09:56:35.715Z,36.93
2022-08-03T09:58:34.289Z,36.41
2022-08-03T10:00:54.830Z,35.86
2022-08-03T10:03:05.087Z,35.98
2022-08-03T10:05:08.704Z,36.27
2022-08-03T10:07:11.468Z,35.81
2022-08-03T10:09:15.718Z,35.49
2022-08-03T10:11:30.973Z,34.04
2022-08-03T10:13:33.650Z,34.70
2022-08-03T10:16:23.555Z,34.08
2022-08-03T10:17:56.966Z,34.27
2022-08-03T10:20:00.261Z,34.47
2022-08-03T10:22:07.785Z,34.07
2022-08-03T10:24:11.034Z,32.43
2022-08-03T10:26:18.962Z,31.72
2022-08-03T10:28:21.709Z,31.73
2022-08-03T10:30:26.255Z,32.04
2022-08-03T10:32:31.716Z,31.86
2022-08-03T10:34:40.304Z,31.95
2022-08-03T10:36:47.652Z,31.79
2022-08-03T10:38:54.359Z,31.50
2022-08-03T10:40:59.059Z,31.43
2022-08-03T10:43:12.068Z,31.13
2022-08-03T10:45:36.371Z,30.86
2022-08-03T10:47:39.308Z,31.11
2022-08-03T10:49:42.717Z,30.89
2022-08-03T10:51:46.136Z,31.30
2022-08-03T10:53:54.767Z,31.01
2022-08-03T10:56:18.199Z,30.56
2022-08-03T10:58:37.049Z,30.31
2022-08-03T11:00:50.942Z,30.17
2022-08-03T11:03:06.505Z,29.93
2022-08-03T11:05:28.970Z,29.01
2022-08-03T11:07:30.540Z,29.40
2022-08-03T11:09:42.016Z,28.48
2022-08-03T11:11:46.619Z,29.20
2022-08-03T11:14:03.224Z,28.52
2022-08-03T11:16:21.926Z,28.29
2022-08-03T11:18:26.848Z,28.84
2022-08-03T11:20:47.537Z,29.20
2022-08-03T11:22:54.469Z,29.51
2022-08-03T11:24:57.302Z,29.15
2022-08-03T11:27:14.290Z,27.57
2022-08-03T11:29:30.044Z,28.14
2022-08-03T11:31:50.198Z,28.21
2022-08-03T11:34:06.263Z,27.63
2022-08-03T11:36:08.078Z,28.08
2022-08-03T11:38:11.434Z,27.92
2022-08-03T11:40:46.505Z,27.48
2022-08-03T11:42:48.236Z,28.18
2022-08-03T11:44:54.828Z,27.58
2022-08-03T11:46:57.819Z,27.59
2022-08-03T11:49:09.860Z,27.53
2022-08-03T11:51:29.741Z,27.28
2022-08-03T11:53:31.447Z,27.31
2022-08-03T11:55:33.395Z,27.07
2022-08-03T11:59:01.264Z,26.68
2022-08-03T11:59:58.718Z,26.46
2022-08-03T12:02:11.196Z,26.43
2022-08-03T12:04:12.974Z,26.87
2022-08-03T12:06:16.776Z,26.83
2022-08-03T12:08:31.170Z,26.83
2022-08-03T12:10:33.644Z,27.46
2022-08-03T12:12:35.685Z,27.47
2022-08-03T12:14:48.748Z,27.13
2022-08-03T12:16:53.594Z,27.09
2022-08-03T12:19:03.372Z,26.48
2022-08-03T12:21:09.755Z,26.88
2022-08-03T12:23:12.578Z,26.91
2022-08-03T12:25:38.657Z,26.89
2022-08-03T12:27:41.339Z,26.87
2022-08-03T12:29:43.423Z,26.72
2022-08-03T12:31:58.825Z,26.71
2022-08-03T12:34:04.280Z,26.97
2022-08-03T12:36:10.022Z,26.67
2022-08-03T12:38:12.833Z,26.40
2022-08-03T12:40:20.576Z,26.47
2022-08-03T12:42:35.455Z,26.17
2022-08-03T12:44:37.456Z,26.35
2022-08-03T12:46:47.023Z,26.38
2022-08-03T12:49:15.415Z,25.78
2022-08-03T12:51:17.400Z,26.44
2022-08-03T12:53:28.966Z,25.38
2022-08-03T12:55:56.221Z,25.74
2022-08-03T12:57:55.972Z,25.93
2022-08-03T13:00:21.704Z,25.51
2022-08-03T13:02:31.448Z,25.82
2022-08-03T13:04:35.686Z,25.94
2022-08-03T13:06:37.435Z,25.92
2022-08-03T13:08:39.151Z,25.87
2022-08-03T13:10:40.744Z,26.13
2022-08-03T13:12:48.191Z,25.96
2022-08-03T13:15:00.635Z,26.14
2022-08-03T13:17:02.656Z,26.54
2022-08-03T13:19:04.441Z,26.12
2022-08-03T13:21:06.113Z,26.56
2022-08-03T13:23:07.823Z,26.39
2022-08-03T13:25:17.767Z,26.57
2022-08-03T13:27:58.859Z,26.16
2022-08-03T13:29:43.078Z,26.41
2022-08-03T13:31:51.163Z,26.19
2022-08-03T13:33:52.942Z,25.47
2022-08-03T13:35:55.339Z,25.67
2022-08-03T13:37:57.941Z,25.78
2022-08-03T13:40:03.003Z,25.88
2022-08-03T13:42:06.270Z,26.01
2022-08-03T13:44:29.390Z,26.01
2022-08-03T13:46:29.782Z,26.10
2022-08-03T13:48:36.957Z,25.91
2022-08-03T13:50:42.955Z,25.77
2022-08-03T13:52:46.420Z,25.69
2022-08-03T13:54:48.058Z,25.42
2022-08-03T13:56:52.959Z,25.47
2022-08-03T13:58:54.903Z,25.36
2022-08-03T14:00:56.699Z,25.68
2022-08-03T14:03:16.398Z,25.54
2022-08-03T14:05:18.264Z,25.38
2022-08-03T14:07:20.322Z,25.32
2022-08-03T14:09:22.535Z,25.73
2022-08-03T14:11:24.177Z,25.56
2022-08-03T14:13:45.837Z,25.49
2022-08-03T14:15:50.183Z,25.50
2022-08-03T14:17:53.215Z,25.78
2022-08-03T14:19:55.050Z,25.92
2022-08-03T14:22:06.151Z,25.62
2022-08-03T14:24:08.462Z,25.78
2022-08-03T14:26:10.319Z,25.69
2022-08-03T14:28:12.554Z,25.44
2022-08-03T14:30:14.926Z,25.70
2022-08-03T14:32:16.498Z,25.63
2022-08-03T14:34:18.523Z,25.84
2022-08-03T14:36:20.316Z,25.83
2022-08-03T14:38:22.475Z,25.79
2022-08-03T14:40:24.238Z,25.39
2022-08-03T14:42:25.988Z,25.73
2022-08-03T14:44:27.889Z,25.13
2022-08-03T14:46:30.022Z,25.59
2022-08-03T14:50:31.596Z,25.44
2022-08-03T14:50:55.079Z,25.31
2022-08-03T14:52:57.289Z,25.62
2022-08-03T14:54:59.759Z,25.68
2022-08-03T14:57:01.313Z,25.16
2022-08-03T14:59:02.959Z,25.46
2022-08-03T15:02:03.119Z,25.75
2022-08-03T15:03:26.378Z,25.72
2022-08-03T15:05:28.359Z,25.31
2022-08-03T15:07:29.924Z,25.30
2022-08-03T15:09:31.902Z,25.72
2022-08-03T15:11:33.481Z,25.87
2022-08-03T15:13:35.195Z,25.75
2022-08-03T15:15:36.812Z,25.97
2022-08-03T15:17:38.516Z,25.95
2022-08-03T15:20:03.087Z,25.88
2022-08-03T15:22:06.554Z,25.96
2022-08-03T15:24:11.129Z,26.01
2022-08-03T15:26:32.734Z,26.01
2022-08-03T15:28:34.183Z,25.76
2022-08-03T15:30:39.004Z,26.20
2022-08-03T15:32:40.786Z,26.14
2022-08-03T15:34:50.407Z,26.34
2022-08-03T15:36:52.465Z,26.42
2022-08-03T15:38:54.174Z,26.71
2022-08-03T15:40:55.870Z,26.56
2022-08-03T15:43:00.476Z,25.90
2022-08-03T15:45:02.187Z,26.04
2022-08-03T15:47:03.877Z,26.42
2022-08-03T15:49:05.449Z,26.09
2022-08-03T15:51:08.166Z,26.49
2022-08-03T15:53:09.778Z,26.41
2022-08-03T15:55:15.806Z,26.71
2022-08-03T15:57:19.371Z,26.78
2022-08-03T15:59:20.988Z,26.71
2022-08-03T16:01:23.364Z,26.57
2022-08-03T16:03:25.867Z,26.57
2022-08-03T16:05:27.756Z,26.31
2022-08-03T16:08:02.914Z,26.17
2022-08-03T16:10:06.255Z,25.87
2022-08-03T16:12:15.578Z,25.96
2022-08-03T16:14:32.020Z,26.23
2022-08-03T16:16:40.869Z,26.44
2022-08-03T16:18:42.654Z,26.37
2022-08-03T16:20:45.227Z,26.64
2022-08-03T16:22:48.551Z,26.46
2022-08-03T16:24:51.185Z,26.86
2022-08-03T16:26:52.799Z,27.18
2022-08-03T16:28:54.453Z,27.03
2022-08-03T16:30:56.322Z,27.04
2022-08-03T16:32:57.970Z,27.34
2022-08-03T16:35:00.607Z,27.51
2022-08-03T16:37:22.098Z,27.42
2022-08-03T16:39:26.811Z,27.88
2022-08-03T16:41:28.606Z,27.30
2022-08-03T16:43:50.395Z,27.52
2022-08-03T16:45:52.133Z,27.38
2022-08-03T16:48:01.613Z,27.66
2022-08-03T16:50:14.287Z,27.79
2022-08-03T16:52:19.009Z,27.81
2022-08-03T16:54:21.513Z,27.51
2022-08-03T16:56:23.316Z,27.56
2022-08-03T16:58:41.450Z,27.16
2022-08-03T17:00:44.503Z,27.42
2022-08-03T17:02:52.185Z,27.49
2022-08-03T17:04:54.800Z,27.40
2022-08-03T17:06:56.513Z,27.90
2022-08-03T17:08:59.677Z,26.97
2022-08-03T17:11:01.417Z,26.68
2022-08-03T17:13:03.417Z,26.85
2022-08-03T17:15:10.654Z,26.49
2022-08-03T17:17:19.873Z,25.98
2022-08-03T17:19:23.983Z,26.25
2022-08-03T17:21:29.484Z,26.85
2022-08-03T17:23:57.543Z,26.83
2022-08-03T17:26:02.326Z,26.79
2022-08-03T17:28:48.393Z,27.29
2022-08-03T17:30:48.090Z,26.82
2022-08-03T17:32:56.883Z,27.15
2022-08-03T17:34:59.949Z,27.23
2022-08-03T17:37:04.522Z,27.06
2022-08-03T17:39:06.916Z,27.51
2022-08-03T17:41:11.234Z,27.59
2022-08-03T17:43:44.059Z,27.21
2022-08-03T17:45:52.613Z,27.85
2022-08-03T17:47:57.133Z,27.79
2022-08-03T17:50:25.275Z,28.18
2022-08-03T17:52:37.793Z,28.04
2022-08-03T17:55:06.863Z,27.85
2022-08-03T17:57:27.168Z,27.92
2022-08-03T17:59:51.643Z,28.36
2022-08-03T18:02:34.906Z,28.47
2022-08-03T18:04:41.717Z,28.29
2022-08-03T18:06:55.816Z,28.68
2022-08-03T18:09:04.928Z,28.88
2022-08-03T18:11:23.812Z,28.78
2022-08-03T18:13:57.727Z,28.63
2022-08-03T18:16:04.679Z,28.67
2022-08-03T18:18:10.889Z,28.81
2022-08-03T18:20:34.139Z,28.80
2022-08-03T18:22:34.750Z,29.15
2022-08-03T18:24:37.251Z,29.07
2022-08-03T18:26:40.662Z,29.10
2022-08-03T18:28:53.114Z,29.42
2022-08-03T18:30:55.343Z,29.76
2022-08-03T18:33:00.607Z,31.37
2022-08-03T18:35:04.218Z,31.82
2022-08-03T18:37:07.832Z,32.34
2022-08-03T18:39:11.064Z,31.74
2022-08-03T18:41:19.634Z,31.67
2022-08-03T18:43:46.575Z,31.74
2022-08-03T18:45:55.970Z,31.30
2022-08-03T18:48:20.117Z,31.59
2022-08-03T18:50:34.530Z,31.28
2022-08-03T18:52:57.682Z,31.56
2022-08-03T18:55:33.158Z,31.44
2022-08-03T18:57:49.356Z,31.30
2022-08-03T19:00:10.432Z,31.25
2022-08-03T19:02:35.347Z,31.80
2022-08-03T19:04:46.502Z,31.82
2022-08-03T19:06:49.070Z,31.61
2022-08-03T19:09:18.551Z,32.28
2022-08-03T19:12:12.553Z,31.97
2022-08-03T19:14:12.028Z,32.13
2022-08-03T19:16:21.027Z,32.12
2022-08-03T19:18:23.047Z,32.01
2022-08-03T19:20:30.782Z,31.77
2022-08-03T19:22:34.286Z,31.73
2022-08-03T19:24:39.893Z,31.93
2022-08-03T19:26:41.499Z,32.27
2022-08-03T19:28:43.307Z,31.50
2022-08-03T19:30:53.224Z,31.67
2022-08-03T19:32:55.825Z,32.06
2022-08-03T19:35:00.649Z,32.31
2022-08-03T19:37:03.627Z,32.02
2022-08-03T19:39:09.248Z,31.91
2022-08-03T19:41:14.898Z,32.30
2022-08-03T19:43:21.345Z,32.28
2022-08-03T19:46:04.916Z,33.05
2022-08-03T19:48:08.028Z,32.85
2022-08-03T19:50:14.357Z,32.77
2022-08-03T19:52:20.557Z,33.04
2022-08-03T19:54:32.374Z,33.40
2022-08-03T19:56:34.677Z,33.40
2022-08-03T19:58:37.421Z,33.69
2022-08-03T20:00:40.335Z,33.29
2022-08-03T20:02:50.975Z,33.81
2022-08-03T20:04:52.882Z,33.63
2022-08-03T20:06:57.479Z,33.64
2022-08-03T20:08:59.814Z,33.55
2022-08-03T20:11:02.106Z,33.89
2022-08-03T20:13:03.758Z,33.59
2022-08-03T20:15:06.572Z,33.72
2022-08-03T20:17:09.243Z,33.84
2022-08-03T20:19:14.115Z,34.05
2022-08-03T20:21:18.880Z,34.12
2022-08-03T20:23:20.976Z,33.96
2022-08-03T20:25:38.953Z,34.32
2022-08-03T20:28:08.134Z,34.73
2022-08-03T20:30:08.582Z,34.09
2022-08-03T20:32:10.323Z,34.25
2022-08-03T20:34:11.935Z,34.46
2022-08-03T20:36:19.443Z,34.36
2022-08-03T20:38:25.054Z,34.43
2022-08-03T20:40:29.098Z,34.00
2022-08-03T20:42:30.985Z,33.85
2022-08-03T20:44:32.775Z,34.08
2022-08-03T20:46:50.160Z,33.89
2022-08-03T20:48:57.554Z,33.73
2022-08-03T20:51:00.866Z,34.23
2022-08-03T20:53:03.126Z,33.85
2022-08-03T20:55:12.906Z,34.04
2022-08-03T20:57:17.016Z,34.00
2022-08-03T20:59:19.988Z,34.35
2022-08-03T21:01:27.824Z,34.69
2022-08-03T21:03:40.988Z,34.55
2022-08-03T21:05:57.058Z,34.96
2022-08-03T21:08:06.923Z,34.86
2022-08-03T21:10:11.070Z,35.00
2022-08-03T21:12:26.764Z,35.36
2022-08-03T21:14:39.206Z,35.19
2022-08-03T21:16:44.632Z,35.19
2022-08-03T21:18:50.325Z,35.29
2022-08-03T21:20:52.440Z,35.11
2022-08-03T21:22:56.251Z,35.27
2022-08-03T21:25:03.851Z,35.10
2022-08-03T21:27:06.347Z,34.89
2022-08-03T21:29:08.965Z,35.33
2022-08-03T21:31:11.178Z,35.29
2022-08-03T21:33:13.725Z,35.26
2022-08-03T21:35:16.156Z,35.32
2022-08-03T21:37:18.052Z,35.45
2022-08-03T21:39:19.985Z,35.31
2022-08-03T21:41:21.998Z,35.36
2022-08-03T21:43:23.917Z,34.86
2022-08-03T21:45:25.762Z,35.15
2022-08-03T21:47:27.797Z,35.11
2022-08-03T21:50:05.316Z,35.12
2022-08-03T21:51:58.062Z,35.18
2022-08-03T21:54:03.732Z,35.28
2022-08-03T21:56:08.548Z,35.52
2022-08-03T21:58:13.665Z,35.15
2022-08-03T22:00:17.996Z,35.06
2022-08-03T22:02:24.225Z,35.22
2022-08-03T22:04:50.241Z,35.21
2022-08-03T22:06:48.872Z,35.19
2022-08-03T22:08:52.774Z,35.20
2022-08-03T22:10:54.572Z,35.42
2022-08-03T22:12:56.281Z,35.09
2022-08-03T22:15:02.004Z,35.35
2022-08-03T22:17:06.214Z,35.05
2022-08-03T22:19:08.848Z,35.24
2022-08-03T22:21:13.099Z,35.33
2022-08-03T22:23:19.573Z,35.30
2022-08-03T22:25:30.030Z,35.52
2022-08-03T22:27:34.202Z,35.28
2022-08-03T22:29:39.720Z,35.72
2022-08-03T22:31:58.684Z,35.73
2022-08-03T22:34:01.146Z,35.35
2022-08-03T22:36:05.413Z,35.14
2022-08-03T22:38:09.044Z,35.35
2022-08-03T22:40:13.176Z,35.35
2022-08-03T22:42:14.769Z,35.51
2022-08-03T22:44:16.635Z,35.30
2022-08-03T22:46:21.664Z,35.36
2022-08-03T22:48:23.307Z,35.62
2022-08-03T22:50:32.562Z,35.36
2022-08-03T22:52:37.499Z,35.83
2022-08-03T22:54:39.193Z,35.18
2022-08-03T22:56:41.308Z,35.56
2022-08-03T22:58:42.953Z,35.89
2022-08-03T23:01:06.749Z,35.81
2022-08-03T23:03:09.726Z,35.78
2022-08-03T23:06:00.913Z,35.52
2022-08-03T23:07:40.587Z,35.72
2022-08-03T23:09:45.316Z,35.44
2022-08-03T23:11:48.279Z,35.42
2022-08-03T23:13:54.044Z,36.06
2022-08-03T23:15:58.309Z,35.62
2022-08-03T23:18:03.169Z,36.24
2022-08-03T23:20:08.271Z,36.76
2022-08-03T23:22:28.605Z,36.02
2022-08-03T23:24:38.526Z,36.88
2022-08-03T23:26:41.180Z,36.65
2022-08-03T23:28:46.721Z,36.59
2022-08-03T23:30:51.548Z,37.14
2022-08-03T23:32:54.871Z,36.39
2022-08-03T23:35:17.798Z,36.75
2022-08-03T23:37:20.537Z,36.80
2022-08-03T23:39:24.102Z,36.71
2022-08-03T23:41:25.848Z,37.01
2022-08-03T23:43:44.811Z,36.92
2022-08-03T23:45:57.157Z,37.51
2022-08-03T23:47:58.755Z,37.37
2022-08-03T23:50:00.380Z,37.09
2022-08-03T23:52:24.260Z,37.09
2022-08-03T23:54:52.152Z,37.44
2022-08-03T23:57:25.006Z,37.34
2022-08-03T23:59:46.961Z,37.63
